CheckWX is a tool to help pilots better visualize weather data.  It is not intended as a substitute for an official pre-flight weather briefing.

02:07:54 UTC

URRP TAF
Platov International Airport Airport
Rostov-on-Don, Russian Federation
TAF URRP 100155Z 1003/1103 36003G10MPS 9999 SCT020 TX27/1012Z TN15/1003Z TEMPO 1003/1103 02006G12MPS

Jul-10@
03:00 UTC

Jul-10 @ 03:00 UTC

Jul-11@
03:00 UTC

Jul-11 @ 03:00 UTC

TAF URRP 100155Z 1003/1103 36003G10MPS 9999 SCT020 TX27/1012Z TN15/1003Z
Wind
  • 360° at 6 KTS
  • {Gusting to 19 KTS
Cloud Levels
  • Scattered at 2,000' AGL

Jul-10@
03:00 UTC

Jul-10 @ 03:00 UTC

Jul-11@
03:00 UTC

Jul-11 @ 03:00 UTC

TEMPO 1003/1103 02006G12MPS

Temporary

Temporary Changes expected for less than half the time period

Wind
  • 020° at 12 KTS
  • {Gusting to 23 KTS
Cloud Levels